NORTHEAST SUFFOLK  -  Winter Weather Advisory Winter Weather Advisory        NORTHERN NASSAU  -  Winter Weather Advisory Winter Weather Advisory        NORTHWEST SUFFOLK  -  Winter Weather Advisory Winter Weather Advisory        SOUTHEAST SUFFOLK  -  Winter Weather Advisory Winter Weather Advisory        SOUTHERN NASSAU  -  Winter Weather Advisory Winter Weather Advisory        SOUTHWEST SUFFOLK  -  Winter Weather Advisory Winter Weather Advisory      

Active alerts

Northern Nassau
  Details for Northern Nassau Winter Weather Advisory
Southern Nassau
  Details for Southern Nassau Winter Weather Advisory
Northwest Suffolk
  Details for Northwest Suffolk Winter Weather Advisory
Southwest Suffolk
  Details for Southwest Suffolk Winter Weather Advisory
Northeast Suffolk
  Details for Northeast Suffolk Winter Weather Advisory
Southeast Suffolk
  Details for Southeast Suffolk Winter Weather Advisory


WXM80 ListenWXM80 Stop

You find our weather info also at:

UK Metoffice

WeatherCloud

Weather Underground

Northeastern Weather Network

AWEKAS

Citizen Weather Observer Program (CWOP)

HAMweather, WeatherForYou, PWS Weather


Weather Underground History page Text

Daily Summary for May 8, 2017 Units:  Metric    English   Both
« Previous Day
Next Day »
Daily Weekly Monthly Yearly Custom
  High: Low: Average:
Temperature: 16.2 °C 7.2 °C 11.3 °C
Dew Point: 5.1 °C 2.2 °C 3.6 °C
Humidity: 76 % 41 % 60 %
Wind Speed: 14.5 km/h 0 km/h 5.8 km/h
Wind Gust: 29.6 km/h - -
Wind:- - West
Pressure: 1012.8 hPa 1007 hPa -
Precipitation: 0.25 mm    
Historical Graphs
 
 
Tabular Data for May 8, 2017
Time Temperature Dew Point Pressure Wind Wind Speed Wind Gust Humidity Rainfall Rate (Hourly)
00:01 8.9 °C 4.5 °C 1007 hPa WNW 6.3 km/h 14.8 km/h 74 % 0 mm
00:06 8.8 °C 4.4 °C 1007 hPa West 5.1 km/h 16.1 km/h 74 % 0 mm
00:11 8.8 °C 4.4 °C 1007 hPa West 8.2 km/h 16.7 km/h 74 % 0 mm
00:16 8.8 °C 4.4 °C 1007 hPa West 10.6 km/h 22.2 km/h 74 % 0 mm
00:21 8.8 °C 4.4 °C 1007.3 hPa NW 9.5 km/h 16.7 km/h 74 % 0 mm
00:26 8.8 °C 4.4 °C 1007.3 hPa NW 6.3 km/h 14.8 km/h 74 % 0 mm
00:31 8.7 °C 4.3 °C 1007 hPa WNW 6.3 km/h 9.7 km/h 74 % 0 mm
00:36 8.7 °C 4.6 °C 1007 hPa West 6.6 km/h 16.1 km/h 75 % 0 mm
00:41 8.7 °C 4.3 °C 1007 hPa WNW 9.2 km/h 16.1 km/h 74 % 0 mm
00:46 8.7 °C 4.3 °C 1007 hPa West 7.2 km/h 16.7 km/h 74 % 0 mm
00:51 8.7 °C 4.3 °C 1007 hPa NW 7.4 km/h 18.5 km/h 74 % 0 mm
00:56 8.7 °C 4.3 °C 1007 hPa WNW 12.9 km/h 18.5 km/h 74 % 0 mm
01:01 8.6 °C 4.2 °C 1007 hPa WNW 5.3 km/h 11.1 km/h 74 % 0 mm
01:06 8.6 °C 4.2 °C 1007 hPa WSW 5.5 km/h 16.7 km/h 74 % 0 mm
01:11 8.6 °C 4.2 °C 1007 hPa WNW 9.5 km/h 14.8 km/h 74 % 0 mm
01:16 8.6 °C 4.2 °C 1007 hPa West 7.7 km/h 18.5 km/h 74 % 0 mm
01:21 8.5 °C 4.1 °C 1007 hPa WNW 4.5 km/h 13 km/h 74 % 0 mm
01:26 8.5 °C 4.1 °C 1007.3 hPa WNW 3.1 km/h 8 km/h 74 % 0 mm
01:31 8.4 °C 4.1 °C 1007.3 hPa West 8 km/h 11.1 km/h 74 % 0 mm
01:37 8.4 °C 4.1 °C 1007 hPa West 5.5 km/h 12.9 km/h 74 % 0 mm
01:42 8.4 °C 4.1 °C 1007 hPa WSW 8.4 km/h 14.8 km/h 74 % 0 mm
01:47 8.4 °C 3.8 °C 1007.3 hPa West 3.9 km/h 9.3 km/h 73 % 0 mm
01:52 8.4 °C 3.8 °C 1007.3 hPa West 2.1 km/h 7.4 km/h 73 % 0 mm
01:57 8.4 °C 3.8 °C 1007.3 hPa WSW 8 km/h 16.7 km/h 73 % 0 mm
02:02 8.4 °C 3.8 °C 1007.3 hPa West 4 km/h 12.9 km/h 73 % 0 mm
02:07 8.3 °C 3.8 °C 1007.3 hPa WSW 6.9 km/h 14.8 km/h 73 % 0 mm
02:12 8.3 °C 3.8 °C 1007.3 hPa WNW 8 km/h 16.7 km/h 73 % 0 mm
02:17 8.3 °C 3.9 °C 1007.3 hPa WNW 5.5 km/h 14.8 km/h 74 % 0 mm
02:22 8.3 °C 3.9 °C 1007.3 hPa SW 8.9 km/h 20.4 km/h 74 % 0 mm
02:27 8.3 °C 3.9 °C 1007.3 hPa WSW 6.6 km/h 13 km/h 74 % 0 mm
02:32 8.2 °C 3.8 °C 1007.3 hPa West 7.2 km/h 14.8 km/h 74 % 0 mm
02:37 8.2 °C 3.8 °C 1007.7 hPa West 5.3 km/h 7.4 km/h 74 % 0 mm
02:42 8.2 °C 3.8 °C 1007.7 hPa NW 6.9 km/h 14.8 km/h 74 % 0 mm
02:47 8.2 °C 3.8 °C 1007.3 hPa WSW 8.4 km/h 16.1 km/h 74 % 0 mm
02:52 8.2 °C 3.8 °C 1007.7 hPa West 5.6 km/h 22.5 km/h 74 % 0 mm
02:57 8.2 °C 3.8 °C 1007.7 hPa WSW 5.1 km/h 11.1 km/h 74 % 0 mm
03:02 8.1 °C 3.8 °C 1007.3 hPa WSW 6 km/h 20.4 km/h 74 % 0 mm
03:07 8.1 °C 3.8 °C 1007.7 hPa WNW 7.9 km/h 11.1 km/h 74 % 0 mm
03:12 8.2 °C 3.8 °C 1007.7 hPa SW 8 km/h 11.1 km/h 74 % 0 mm
03:18 8.1 °C 3.6 °C 1008 hPa SW 12.9 km/h 20.4 km/h 73 % 0 mm
03:23 8.1 °C 3.6 °C 1008 hPa SW 14.2 km/h 17.7 km/h 73 % 0 mm
03:28 8.1 °C 3.6 °C 1008 hPa WSW 6.8 km/h 16.7 km/h 73 % 0 mm
03:33 8.1 °C 3.5 °C 1008 hPa SW 10.1 km/h 20.4 km/h 73 % 0 mm
03:38 8.1 °C 3.5 °C 1008 hPa SSW 6.1 km/h 13 km/h 73 % 0 mm
03:43 8 °C 3.4 °C 1008 hPa West 9.7 km/h 14.8 km/h 73 % 0 mm
03:48 8 °C 3.4 °C 1008 hPa West 3.4 km/h 11.1 km/h 73 % 0 mm
03:53 8 °C 3.7 °C 1008 hPa SW 6.6 km/h 18.5 km/h 74 % 0 mm
03:58 7.9 °C 3.4 °C 1008 hPa SW 8.2 km/h 14.8 km/h 73 % 0 mm
04:03 7.9 °C 3.6 °C 1008 hPa WSW 9.3 km/h 18.5 km/h 74 % 0 mm
04:08 7.9 °C 3.6 °C 1008.4 hPa WNW 10.3 km/h 18.5 km/h 74 % 0 mm
04:13 7.8 °C 3.7 °C 1008.4 hPa WSW 8.7 km/h 18.5 km/h 75 % 0 mm
04:18 7.8 °C 3.5 °C 1008 hPa WNW 8.2 km/h 13 km/h 74 % 0 mm
04:23 7.8 °C 3.5 °C 1008 hPa WSW 12.4 km/h 20.4 km/h 74 % 0 mm
04:28 7.8 °C 3.4 °C 1008 hPa West 6.6 km/h 11.3 km/h 74 % 0 mm
04:33 7.8 °C 3.4 °C 1008 hPa WSW 6.8 km/h 9.3 km/h 74 % 0 mm
04:38 7.7 °C 3.4 °C 1008 hPa SW 8.9 km/h 13 km/h 74 % 0 mm
04:43 7.7 °C 3.3 °C 1008 hPa WNW 4.7 km/h 11.1 km/h 74 % 0 mm
04:48 7.7 °C 3.5 °C 1008 hPa WNW 6.8 km/h 16.7 km/h 75 % 0 mm
04:53 7.7 °C 3.5 °C 1008.4 hPa WSW 6.6 km/h 11.3 km/h 75 % 0 mm
04:58 7.6 °C 3.4 °C 1008.4 hPa WSW 7.1 km/h 14.5 km/h 75 % 0 mm
05:03 7.6 °C 3.4 °C 1008.4 hPa West 4.3 km/h 14.8 km/h 75 % 0 mm
05:08 7.5 °C 3.6 °C 1008.4 hPa WSW 6.6 km/h 14.8 km/h 76 % 0 mm
05:14 7.4 °C 3.5 °C 1008.4 hPa NW 5.5 km/h 13 km/h 76 % 0 mm
05:19 7.4 °C 3.3 °C 1008.4 hPa WSW 7.1 km/h 11.1 km/h 75 % 0 mm
05:24 7.4 °C 3.2 °C 1008.4 hPa WNW 4.5 km/h 9.3 km/h 75 % 0 mm
05:29 7.3 °C 3.2 °C 1008.7 hPa WNW 4.7 km/h 11.3 km/h 75 % 0 mm
05:34 7.3 °C 3.1 °C 1008.7 hPa WNW 7.1 km/h 11.1 km/h 75 % 0 mm
05:39 7.2 °C 3.1 °C 1008.7 hPa WNW 4.7 km/h 11.1 km/h 75 % 0 mm
05:44 7.2 °C 3.1 °C 1008.7 hPa West 8 km/h 16.7 km/h 75 % 0 mm
05:49 7.2 °C 3.2 °C 1008.7 hPa West 9.8 km/h 16.7 km/h 76 % 0 mm
05:54 7.2 °C 3.2 °C 1008.7 hPa SW 6.4 km/h 18.5 km/h 76 % 0 mm
05:59 7.2 °C 3.2 °C 1008.7 hPa SW 5.5 km/h 13 km/h 76 % 0 mm
06:04 7.2 °C 3.2 °C 1009 hPa West 9.5 km/h 16.7 km/h 76 % 0 mm
06:09 7.2 °C 3.2 °C 1009 hPa WNW 6.3 km/h 13 km/h 76 % 0 mm
06:14 7.2 °C 3.2 °C 1009 hPa NW 5 km/h 13 km/h 76 % 0 mm
06:19 7.2 °C 3.2 °C 1009 hPa WSW 7.1 km/h 14.8 km/h 76 % 0 mm
06:24 7.2 °C 3.1 °C 1009.4 hPa West 7.1 km/h 13 km/h 75 % 0 mm
06:29 7.3 °C 3.2 °C 1009.4 hPa WNW 5.3 km/h 9.3 km/h 75 % 0 mm
06:34 7.4 °C 3.2 °C 1009.4 hPa West 7.9 km/h 14.8 km/h 75 % 0 mm
06:39 7.6 °C 3.4 °C 1009.4 hPa West 9.3 km/h 16.7 km/h 75 % 0 mm
06:44 7.7 °C 3.3 °C 1009.4 hPa WSW 3.7 km/h 11.1 km/h 74 % 0 mm
06:49 7.8 °C 3.6 °C 1009.4 hPa WNW 2.7 km/h 5.6 km/h 75 % 0 mm
06:54 8 °C 3.7 °C 1009.4 hPa West 8 km/h 14.5 km/h 74 % 0 mm
06:59 8.2 °C 3.8 °C 1009.4 hPa WSW 6.3 km/h 11.1 km/h 74 % 0 mm
07:04 8.3 °C 3.8 °C 1009.7 hPa SW 7.9 km/h 14.8 km/h 73 % 0 mm
07:09 8.5 °C 3.7 °C 1009.7 hPa SW 4.7 km/h 9.7 km/h 72 % 0 mm
07:14 8.7 °C 3.7 °C 1009.7 hPa WNW 4.2 km/h 11.1 km/h 71 % 0 mm
07:19 8.8 °C 3.8 °C 1009.7 hPa WSW 6.9 km/h 18.5 km/h 71 % 0 mm
07:24 8.9 °C 3.8 °C 1009.7 hPa NW 3.1 km/h 11.1 km/h 70 % 0 mm
07:29 9.1 °C 3.7 °C 1009.7 hPa SW 9.2 km/h 13 km/h 69 % 0 mm
07:34 9.1 °C 3.7 °C 1009.7 hPa WNW 6.1 km/h 9.3 km/h 69 % 0 mm
07:40 9.1 °C 3.7 °C 1010 hPa West 6.4 km/h 11.3 km/h 69 % 0 mm
07:45 9.2 °C 3.6 °C 1009.7 hPa WSW 7.7 km/h 12.9 km/h 68 % 0 mm
07:50 9.2 °C 3.6 °C 1009.7 hPa NW 7.9 km/h 13 km/h 68 % 0 mm
07:55 9.4 °C 4 °C 1009.7 hPa WNW 8.5 km/h 11.1 km/h 69 % 0 mm
08:00 9.5 °C 3.9 °C 1009.7 hPa WSW 5 km/h 11.1 km/h 68 % 0 mm
08:05 9.6 °C 3.8 °C 1009.7 hPa NW 6.9 km/h 18.5 km/h 67 % 0 mm
08:10 9.7 °C 3.6 °C 1009.7 hPa SW 2.3 km/h 5.6 km/h 66 % 0 mm
08:15 9.8 °C 4.2 °C 1009.7 hPa West 11.9 km/h 18.5 km/h 68 % 0 mm
08:20 9.8 °C 4 °C 1009.7 hPa NW 11.7 km/h 22.2 km/h 67 % 0 mm
08:25 9.9 °C 4.1 °C 1010 hPa WSW 8.5 km/h 14.8 km/h 67 % 0 mm
08:30 9.9 °C 3.9 °C 1010 hPa WNW 11.4 km/h 24.1 km/h 66 % 0 mm
08:35 9.9 °C 3.9 °C 1009.7 hPa West 6.1 km/h 16.7 km/h 66 % 0 mm
08:40 10 °C 4.2 °C 1009.7 hPa West 5.5 km/h 11.1 km/h 67 % 0 mm
08:45 10.2 °C 3.9 °C 1010 hPa WNW 8.4 km/h 18.5 km/h 65 % 0 mm
08:50 10.2 °C 3.9 °C 1009.7 hPa West 10.1 km/h 20.4 km/h 65 % 0 mm
08:55 10.3 °C 4.1 °C 1010 hPa SSW 13.8 km/h 18.5 km/h 65 % 0 mm
09:00 10.4 °C 3.9 °C 1010 hPa SSW 7.7 km/h 14.8 km/h 64 % 0 mm
09:05 10.5 °C 3.7 °C 1010 hPa WSW 10.3 km/h 18.5 km/h 63 % 0 mm
09:10 10.6 °C 4 °C 1010 hPa South 5.5 km/h 11.1 km/h 64 % 0 mm
09:15 10.7 °C 3.9 °C 1010 hPa WNW 7.7 km/h 11.3 km/h 63 % 0 mm
09:20 10.9 °C 4.1 °C 1010 hPa WSW 9.8 km/h 18.5 km/h 63 % 0 mm
09:25 11.1 °C 4.1 °C 1010 hPa WSW 7.1 km/h 16.7 km/h 62 % 0 mm
09:30 11.3 °C 4.1 °C 1010 hPa NW 10.1 km/h 27.8 km/h 61 % 0 mm
09:35 11.5 °C 4 °C 1010 hPa WNW 11.6 km/h 22.2 km/h 60 % 0 mm
09:40 11.6 °C 4.3 °C 1010 hPa SW 5.3 km/h 17.7 km/h 61 % 0 mm
09:45 11.7 °C 4.2 °C 1010 hPa WSW 7.1 km/h 20.4 km/h 60 % 0 mm
09:50 11.9 °C 4.6 °C 1010 hPa SW 7.2 km/h 11.1 km/h 61 % 0 mm
09:55 12.1 °C 4.3 °C 1010 hPa NW 5 km/h 14.8 km/h 59 % 0 mm
10:01 12.1 °C 4.3 °C 1010 hPa WSW 8.9 km/h 11.1 km/h 59 % 0 mm
10:06 12.2 °C 4.2 °C 1010 hPa West 6 km/h 16.7 km/h 58 % 0 mm
10:11 12.3 °C 3.6 °C 1010 hPa West 4 km/h 13 km/h 55 % 0 mm
10:16 12.5 °C 3.4 °C 1010 hPa WSW 9.7 km/h 19.3 km/h 54 % 0 mm
10:21 12.6 °C 3.6 °C 1010 hPa West 9.7 km/h 25.7 km/h 54 % 0 mm
10:26 12.8 °C 3.5 °C 1010 hPa West 14.5 km/h 22.5 km/h 53 % 0 mm
10:31 12.9 °C 4.1 °C 1010 hPa NW 8 km/h 13 km/h 55 % 0 mm
10:36 13.1 °C 3.7 °C 1010 hPa WNW 8 km/h 19.3 km/h 53 % 0 mm
10:41 13.4 °C 4.6 °C 1010 hPa WNW 8 km/h 19.3 km/h 55 % 0 mm
10:46 13.6 °C 3.7 °C 1010 hPa West 4.8 km/h 19.3 km/h 51 % 0 mm
10:51 13.8 °C 3.8 °C 1010 hPa West 8 km/h 22.5 km/h 51 % 0 mm
10:56 13.9 °C 4.2 °C 1010 hPa West 8 km/h 22.5 km/h 52 % 0 mm
10:57 14 °C 3.7 °C 1010 hPa NW 7.2 km/h 14.8 km/h 50 % 0 mm
11:02 14.1 °C 3.5 °C 1010 hPa WSW 11.9 km/h 19.3 km/h 49 % 0 mm
11:07 14.3 °C 3.7 °C 1010 hPa WSW 13 km/h 25.9 km/h 49 % 0 mm
11:12 14.3 °C 3.4 °C 1010 hPa SW 10.5 km/h 22.2 km/h 48 % 0 mm
11:17 14.2 °C 2.8 °C 1010 hPa West 14.5 km/h 20.9 km/h 46 % 0 mm
11:23 14.1 °C 2.9 °C 1010 hPa NW 11.6 km/h 14.8 km/h 47 % 0 mm
11:28 14 °C 2.6 °C 1010 hPa SSW 9.3 km/h 18.5 km/h 46 % 0 mm
11:33 14.2 °C 3.3 °C 1010 hPa West 10.8 km/h 18.5 km/h 48 % 0 mm
11:38 14.3 °C 4.1 °C 1010 hPa WSW 7.6 km/h 16.1 km/h 50 % 0 mm
11:43 14.6 °C 3.4 °C 1010 hPa SW 4.5 km/h 16.7 km/h 47 % 0 mm
11:48 14.6 °C 3.1 °C 1010 hPa WSW 9.7 km/h 16.7 km/h 46 % 0 mm
11:53 14.7 °C 3.8 °C 1010 hPa WNW 10.8 km/h 16.1 km/h 48 % 0 mm
11:58 14.8 °C 2.6 °C 1010 hPa NW 10.1 km/h 20.4 km/h 44 % 0 mm
12:03 14.9 °C 2.7 °C 1010 hPa WNW 13.5 km/h 24.1 km/h 44 % 0 mm
12:08 14.9 °C 3.4 °C 1010 hPa WSW 9.5 km/h 19.3 km/h 46 % 0 mm
12:13 14.9 °C 2.7 °C 1010 hPa SW 12.4 km/h 18.5 km/h 44 % 0 mm
12:18 14.9 °C 3.4 °C 1010 hPa WNW 11.1 km/h 24.1 km/h 46 % 0 mm
12:23 14.9 °C 2.8 °C 1010 hPa WNW 12.7 km/h 22.2 km/h 44 % 0 mm
12:28 14.8 °C 2.6 °C 1010 hPa WSW 12.4 km/h 22.5 km/h 44 % 0 mm
12:33 14.7 °C 2.9 °C 1010 hPa SW 11.6 km/h 22.2 km/h 45 % 0 mm
12:38 14.7 °C 2.6 °C 1010 hPa WNW 13.8 km/h 18.5 km/h 44 % 0 mm
12:43 14.7 °C 2.9 °C 1010 hPa WNW 12.1 km/h 20.9 km/h 45 % 0 mm
12:48 14.6 °C 2.8 °C 1010 hPa WSW 8.5 km/h 18.5 km/h 45 % 0 mm
12:53 14.4 °C 2.7 °C 1010 hPa WNW 8.4 km/h 16.7 km/h 45 % 0 mm
12:58 14.6 °C 2.4 °C 1009.7 hPa West 11.3 km/h 18.5 km/h 44 % 0 mm
13:03 14.7 °C 2.3 °C 1010 hPa WSW 13 km/h 25.9 km/h 43 % 0 mm
13:08 14.6 °C 2.4 °C 1009.7 hPa WNW 9.5 km/h 29 km/h 44 % 0 mm
13:13 14.3 °C 2.2 °C 1009.7 hPa West 7.9 km/h 18.5 km/h 44 % 0 mm
13:18 14.3 °C 2.8 °C 1009.7 hPa WSW 6.9 km/h 18.5 km/h 46 % 0 mm
13:23 14.3 °C 2.6 °C 1009.7 hPa WNW 4.8 km/h 22.2 km/h 45 % 0 mm
13:28 14.4 °C 2.9 °C 1009.7 hPa WNW 9.8 km/h 20.9 km/h 46 % 0 mm
13:34 14.6 °C 2.7 °C 1009.7 hPa WNW 11.1 km/h 22.2 km/h 45 % 0 mm
13:39 14.7 °C 2.6 °C 1009.7 hPa WNW 6.9 km/h 29.6 km/h 44 % 0 mm
13:44 14.8 °C 2.6 °C 1009.7 hPa NNW 13.7 km/h 22.5 km/h 44 % 0.25 mm
13:49 14.9 °C 3.1 °C 1009.7 hPa NW 9.5 km/h 18.5 km/h 45 % 0.25 mm
13:54 15.1 °C 3.3 °C 1009.7 hPa SW 13.4 km/h 22.2 km/h 45 % 0.25 mm
13:59 15.2 °C 3.1 °C 1010 hPa NNW 10.9 km/h 22.2 km/h 44 % 0.25 mm
14:04 15.3 °C 3.1 °C 1009.7 hPa WNW 10.3 km/h 19.3 km/h 44 % 0.25 mm
14:09 15.4 °C 3.9 °C 1010 hPa West 7.7 km/h 18.5 km/h 46 % 0.25 mm
14:14 15.6 °C 3.3 °C 1010 hPa West 8.4 km/h 24.1 km/h 44 % 0.25 mm
14:19 15.5 °C 3.3 °C 1010 hPa WNW 6 km/h 17.7 km/h 44 % 0.25 mm
14:24 15.3 °C 2.5 °C 1010 hPa WNW 11.6 km/h 18.5 km/h 42 % 0.25 mm
14:29 15.2 °C 3 °C 1010 hPa West 13.5 km/h 24.1 km/h 44 % 0.25 mm
14:34 15.1 °C 2.6 °C 1010 hPa West 5.6 km/h 18.5 km/h 43 % 0.25 mm
14:39 15.1 °C 3.3 °C 1010 hPa WNW 5.5 km/h 14.8 km/h 45 % 0.25 mm
14:44 15.2 °C 2.7 °C 1010 hPa SW 12.6 km/h 13 km/h 43 % 0 mm
14:49 15 °C 2.8 °C 1010 hPa NW 9.7 km/h 22.2 km/h 44 % 0 mm
14:55 15 °C 2.8 °C 1010 hPa WNW 8.7 km/h 14.8 km/h 44 % 0 mm
15:00 15.3 °C 4 °C 1010 hPa West 7.1 km/h 13 km/h 47 % 0 mm
15:05 15.4 °C 3.2 °C 1010 hPa WNW 11.4 km/h 17.7 km/h 44 % 0 mm
15:10 15.6 °C 4.3 °C 1009.7 hPa NW 2.6 km/h 11.1 km/h 47 % 0 mm
15:15 15.8 °C 3.8 °C 1010 hPa WNW 7.9 km/h 24.1 km/h 45 % 0 mm
15:20 15.9 °C 3.3 °C 1010 hPa WNW 9.7 km/h 24.1 km/h 43 % 0 mm
15:25 16 °C 3.4 °C 1010 hPa WNW 8.9 km/h 14.8 km/h 43 % 0 mm
15:30 16.1 °C 4.2 °C 1010 hPa West 5.8 km/h 14.8 km/h 45 % 0 mm
15:35 16.1 °C 4.2 °C 1010 hPa NW 5.1 km/h 11.3 km/h 45 % 0 mm
15:40 16.2 °C 3.9 °C 1010 hPa NW 5.1 km/h 11.1 km/h 44 % 0 mm
15:45 16.2 °C 4.2 °C 1010 hPa WNW 6.1 km/h 18.5 km/h 45 % 0 mm
15:50 16.2 °C 4.2 °C 1010 hPa NW 3.4 km/h 13 km/h 45 % 0 mm
15:55 16.2 °C 3.9 °C 1010 hPa WNW 9.5 km/h 18.5 km/h 44 % 0 mm
16:00 16.2 °C 4.2 °C 1010 hPa WNW 1.3 km/h 11.1 km/h 45 % 0 mm
16:05 16.2 °C 4.5 °C 1010 hPa NNW 4.7 km/h 11.1 km/h 46 % 0 mm
16:10 16.2 °C 3.6 °C 1010 hPa NW 4.2 km/h 9.3 km/h 43 % 0 mm
16:15 16.1 °C 3.5 °C 1010 hPa NW 7.1 km/h 13 km/h 43 % 0 mm
16:20 16.1 °C 3.4 °C 1010 hPa NW 4.2 km/h 7.4 km/h 43 % 0 mm
16:25 16.1 °C 4.4 °C 1010 hPa NW 4.2 km/h 8 km/h 46 % 0 mm
16:30 16.1 °C 3.1 °C 1010.4 hPa NW 6.8 km/h 13 km/h 42 % 0 mm
16:36 16.1 °C 3.1 °C 1010.4 hPa North 5.5 km/h 8 km/h 42 % 0 mm
16:41 16 °C 4.1 °C 1010.4 hPa NNW 4.8 km/h 9.7 km/h 45 % 0 mm
16:46 16 °C 3.4 °C 1010.4 hPa North 3.4 km/h 7.4 km/h 43 % 0 mm
16:51 15.9 °C 4 °C 1010.4 hPa NNW 3.2 km/h 9.7 km/h 45 % 0 mm
16:56 15.9 °C 3.7 °C 1010.4 hPa NNW 3.2 km/h 11.3 km/h 44 % 0 mm
17:01 15.9 °C 3.1 °C 1010.4 hPa NNW 4.7 km/h 9.3 km/h 42 % 0 mm
17:06 15.9 °C 3 °C 1010.4 hPa NW 3.2 km/h 9.3 km/h 42 % 0 mm
17:11 15.7 °C 2.8 °C 1010.4 hPa NNW 3.4 km/h 5.6 km/h 42 % 0 mm
17:16 15.4 °C 2.2 °C 1010.4 hPa NW 2.7 km/h 5.6 km/h 41 % 0 mm
17:21 15.2 °C 3.3 °C 1010.4 hPa WNW 3.4 km/h 7.4 km/h 45 % 0 mm
17:26 15.1 °C 3.3 °C 1010.4 hPa NW 4.8 km/h 8 km/h 45 % 0 mm
17:31 15 °C 2.8 °C 1010.4 hPa WNW 4.7 km/h 7.4 km/h 44 % 0 mm
17:36 14.9 °C 4 °C 1010.4 hPa NW 0.8 km/h 1.9 km/h 48 % 0 mm
17:41 14.8 °C 4.2 °C 1010.4 hPa WNW 4 km/h 5.6 km/h 49 % 0 mm
17:46 14.6 °C 3.4 °C 1010.4 hPa NNW 2.6 km/h 7.4 km/h 47 % 0 mm
17:51 14.4 °C 2.9 °C 1010.4 hPa NW 5.3 km/h 9.3 km/h 46 % 0 mm
17:57 14.3 °C 3.7 °C 1010.4 hPa NW 2.7 km/h 5.6 km/h 49 % 0 mm
18:02 14.2 °C 3.9 °C 1010.4 hPa NW 0.2 km/h 1.9 km/h 50 % 0 mm
18:07 14.1 °C 3.8 °C 1010.7 hPa NW 0.3 km/h 5.6 km/h 50 % 0 mm
18:12 14.1 °C 4.3 °C 1010.7 hPa NW 3.5 km/h 6.4 km/h 52 % 0 mm
18:17 13.9 °C 3.1 °C 1010.7 hPa WNW 2.1 km/h 6.4 km/h 48 % 0 mm
18:22 13.9 °C 2.8 °C 1010.7 hPa WNW 2.6 km/h 5.6 km/h 47 % 0 mm
18:27 13.9 °C 3.3 °C 1010.7 hPa NW 0.6 km/h 3.7 km/h 49 % 0 mm
18:28 13.8 °C 3.6 °C 1010.7 hPa NW 0.6 km/h 3.7 km/h 50 % 0 mm
18:33 13.8 °C 3 °C 1010.7 hPa NW 1.8 km/h 5.6 km/h 48 % 0 mm
18:38 13.8 °C 2.9 °C 1010.7 hPa NW 1 km/h 1.9 km/h 48 % 0 mm
18:43 13.7 °C 3.5 °C 1010.7 hPa NW 0.6 km/h 1.9 km/h 50 % 0 mm
18:49 13.7 °C 2.8 °C 1011.1 hPa Calm   5.6 km/h 48 % 0 mm
18:54 13.6 °C 3.1 °C 1011.1 hPa Calm   1.9 km/h 49 % 0 mm
18:59 13.5 °C 3.3 °C 1011.1 hPa NW 0.2 km/h 1.9 km/h 50 % 0 mm
19:04 13.4 °C 2.9 °C 1011.1 hPa Calm   1.9 km/h 49 % 0 mm
19:09 13.3 °C 3.1 °C 1011.1 hPa Calm     50 % 0 mm
19:14 13.2 °C 2.9 °C 1011.1 hPa Calm   1.6 km/h 50 % 0 mm
19:19 13.1 °C 3.4 °C 1011.1 hPa Calm     52 % 0 mm
19:24 12.9 °C 3.1 °C 1011.4 hPa Calm     51 % 0 mm
19:29 12.8 °C 2.9 °C 1011.4 hPa Calm     51 % 0 mm
19:34 12.7 °C 2.8 °C 1011.4 hPa Calm     51 % 0 mm
19:39 12.6 °C 2.7 °C 1011.1 hPa Calm     51 % 0 mm
19:44 12.5 °C 2.9 °C 1011.4 hPa Calm     52 % 0 mm
19:49 12.3 °C 3.3 °C 1011.4 hPa Calm     54 % 0 mm
19:54 12.2 °C 3.4 °C 1011.4 hPa Calm     55 % 0 mm
19:59 12 °C 3.5 °C 1011.4 hPa Calm     56 % 0 mm
20:04 11.8 °C 3.6 °C 1011.4 hPa Calm     57 % 0 mm
20:09 11.6 °C 3.8 °C 1011.4 hPa Calm     59 % 0 mm
20:14 11.3 °C 3.8 °C 1011.4 hPa Calm     60 % 0 mm
20:19 11.1 °C 3.6 °C 1011.4 hPa Calm     60 % 0 mm
20:24 10.9 °C 3.5 °C 1011.4 hPa Calm     60 % 0 mm
20:29 10.8 °C 3.6 °C 1011.4 hPa Calm     61 % 0 mm
20:34 10.7 °C 3.2 °C 1011.4 hPa Calm     60 % 0 mm
20:39 10.6 °C 3.3 °C 1011.4 hPa Calm     61 % 0 mm
20:44 10.4 °C 3.2 °C 1011.7 hPa Calm     61 % 0 mm
20:49 10.3 °C 3.4 °C 1011.4 hPa Calm     62 % 0 mm
20:54 10.2 °C 3.3 °C 1011.4 hPa Calm     62 % 0 mm
20:59 10.2 °C 3.4 °C 1011.4 hPa Calm     63 % 0 mm
21:04 10.1 °C 3.3 °C 1011.4 hPa Calm     63 % 0 mm
21:09 10 °C 3.5 °C 1011.7 hPa Calm     64 % 0 mm
21:14 9.9 °C 3.4 °C 1011.7 hPa Calm     64 % 0 mm
21:19 9.9 °C 3.7 °C 1011.7 hPa Calm     65 % 0 mm
21:24 9.9 °C 3.6 °C 1011.7 hPa Calm     65 % 0 mm
21:29 9.8 °C 3.6 °C 1011.7 hPa Calm     65 % 0 mm
21:34 9.8 °C 3.8 °C 1011.7 hPa Calm     66 % 0 mm
21:39 9.8 °C 3.5 °C 1012.1 hPa Calm     65 % 0 mm
21:44 9.8 °C 3.9 °C 1012.1 hPa Calm     67 % 0 mm
21:49 9.8 °C 3.9 °C 1012.1 hPa Calm     67 % 0 mm
21:54 9.7 °C 4.1 °C 1012.1 hPa Calm     68 % 0 mm
21:59 9.7 °C 4.1 °C 1012.1 hPa NW 0.6 km/h 1.9 km/h 68 % 0 mm
22:05 9.7 °C 4.3 °C 1012.1 hPa Calm     69 % 0 mm
22:10 9.6 °C 4.2 °C 1012.1 hPa Calm   1.9 km/h 69 % 0 mm
22:15 9.6 °C 4.2 °C 1012.1 hPa Calm     69 % 0 mm
22:20 9.5 °C 4.1 °C 1012.4 hPa Calm     69 % 0 mm
22:25 9.4 °C 3.8 °C 1012.4 hPa Calm     68 % 0 mm
22:30 9.4 °C 3.6 °C 1012.4 hPa Calm     67 % 0 mm
22:35 9.4 °C 4 °C 1012.1 hPa Calm     69 % 0 mm
22:40 9.3 °C 4.3 °C 1012.4 hPa Calm     71 % 0 mm
22:45 9.3 °C 4.3 °C 1012.4 hPa Calm     71 % 0 mm
22:50 9.2 °C 4.6 °C 1012.4 hPa NNE 1 km/h 5.6 km/h 73 % 0 mm
22:55 9.3 °C 4.9 °C 1012.4 hPa NE 3.7 km/h 5.6 km/h 74 % 0 mm
23:00 9.3 °C 4.6 °C 1012.4 hPa NE 4 km/h 5.6 km/h 72 % 0 mm
23:05 9.5 °C 4.7 °C 1012.4 hPa ENE 5.8 km/h 7.4 km/h 72 % 0 mm
23:10 9.7 °C 4.3 °C 1012.4 hPa ENE 5.6 km/h 9.3 km/h 69 % 0 mm
23:15 9.8 °C 4.2 °C 1012.4 hPa ENE 3.2 km/h 6.4 km/h 68 % 0 mm
23:20 10 °C 4.3 °C 1012.4 hPa ENE 1.9 km/h 3.7 km/h 68 % 0 mm
23:25 10.1 °C 4.4 °C 1012.4 hPa ENE 1.8 km/h 3.7 km/h 68 % 0 mm
23:30 10.2 °C 5 °C 1012.8 hPa NE 4 km/h 6.4 km/h 70 % 0 mm
23:35 10.3 °C 4.8 °C 1012.8 hPa NE 2.9 km/h 5.6 km/h 69 % 0 mm
23:40 10.3 °C 5.1 °C 1012.8 hPa ENE 3.1 km/h 5.6 km/h 70 % 0 mm
23:45 10.3 °C 4.9 °C 1012.8 hPa ENE 3.1 km/h 5.6 km/h 69 % 0 mm
23:50 10.4 °C 4.5 °C 1012.8 hPa ENE 3.5 km/h 5.6 km/h 67 % 0 mm
23:55 10.4 °C 5 °C 1012.8 hPa ENE 2.3 km/h 3.7 km/h 69 % 0 mm
Crab Meadow Weather
Compliments of Weather Underground - 3 mb

Script developed by  Jim McMurry - jmcmurry@mwt.net Adapted for the template by  Wim van der Kuil - Leuven-Template.eu

Weather Terms: Warning - A warning is issued when a hazardous weather or hydrologic event is occurring, imminent or likely. A warning means weather conditions pose a threat to life or property. People in the path of the storm need to take protective action.